createdAt,value
2018-04-22T00:01:59.133Z,8.07
2018-04-22T00:04:27.481Z,10.80
2018-04-22T00:06:55.837Z,7.53
2018-04-22T00:09:24.325Z,7.67
2018-04-22T00:11:52.649Z,8.10
2018-04-22T00:14:21.196Z,7.30
2018-04-22T00:16:49.890Z,9.50
2018-04-22T00:19:18.289Z,7.50
2018-04-22T00:21:46.598Z,7.50
2018-04-22T00:24:14.920Z,7.73
2018-04-22T00:26:43.240Z,7.60
2018-04-22T00:29:11.597Z,7.30
2018-04-22T00:31:39.968Z,8.67
2018-04-22T00:34:08.426Z,9.10
2018-04-22T00:36:36.748Z,7.67
2018-04-22T00:39:05.085Z,8.57
2018-04-22T00:41:34.170Z,7.37
2018-04-22T00:44:02.504Z,9.07
2018-04-22T00:46:30.844Z,7.60
2018-04-22T00:49:00.691Z,9.37
2018-04-22T00:51:29.780Z,10.63
2018-04-22T00:54:16.494Z,8.73
2018-04-22T00:56:45.990Z,8.83
2018-04-22T00:59:14.292Z,7.40
2018-04-22T01:01:42.613Z,7.63
2018-04-22T01:04:10.951Z,19.40
2018-04-22T01:06:39.269Z,9.30
2018-04-22T01:09:07.584Z,11.53
2018-04-22T01:11:35.918Z,8.40
2018-04-22T01:14:04.216Z,9.70
2018-04-22T01:16:32.548Z,9.40
2018-04-22T01:19:01.656Z,11.13
2018-04-22T01:21:30.017Z,9.83
2018-04-22T01:23:59.130Z,12.00
2018-04-22T01:26:28.233Z,14.23
2018-04-22T01:28:56.551Z,9.43
2018-04-22T01:31:24.884Z,9.60
2018-04-22T01:33:53.983Z,10.40
2018-04-22T01:36:22.321Z,10.30
2018-04-22T01:38:50.657Z,13.27
2018-04-22T01:41:19.748Z,11.03
2018-04-22T01:43:48.873Z,11.40
2018-04-22T01:46:17.287Z,11.17
2018-04-22T01:48:45.628Z,9.60
2018-04-22T01:51:13.954Z,11.13
2018-04-22T01:53:42.270Z,10.83
2018-04-22T01:56:10.640Z,11.00
2018-04-22T01:58:40.423Z,10.30
2018-04-22T02:01:08.849Z,10.23
2018-04-22T02:03:37.197Z,10.87
2018-04-22T02:06:05.526Z,12.73
2018-04-22T02:08:34.656Z,16.83
2018-04-22T02:11:03.012Z,11.50
2018-04-22T02:13:32.107Z,13.13
2018-04-22T02:16:00.474Z,12.90
2018-04-22T02:18:29.559Z,11.40
2018-04-22T02:20:57.911Z,12.57
2018-04-22T02:23:26.276Z,11.47
2018-04-22T02:25:54.732Z,13.00
2018-04-22T02:28:23.841Z,13.20
2018-04-22T02:30:52.156Z,11.40
2018-04-22T02:33:20.483Z,12.10
2018-04-22T02:35:49.594Z,12.53
2018-04-22T02:38:18.659Z,11.50
2018-04-22T02:40:46.995Z,12.70
2018-04-22T02:43:15.351Z,12.53
2018-04-22T02:45:44.443Z,13.00
2018-04-22T02:48:14.337Z,13.17
2018-04-22T02:50:44.357Z,11.90
2018-04-22T02:53:13.482Z,12.60
2018-04-22T02:55:42.591Z,11.97
2018-04-22T02:58:11.692Z,13.03
2018-04-22T03:00:40.789Z,14.57
2018-04-22T03:03:09.174Z,15.30
2018-04-22T03:05:37.505Z,14.20
2018-04-22T03:08:05.845Z,14.37
2018-04-22T03:10:34.176Z,14.87
2018-04-22T03:13:02.805Z,13.37
2018-04-22T03:15:31.171Z,15.70
2018-04-22T03:18:00.276Z,14.43
2018-04-22T03:20:29.371Z,15.07
2018-04-22T03:22:58.458Z,15.07
2018-04-22T03:25:27.552Z,13.93
2018-04-22T03:27:55.893Z,15.23
2018-04-22T03:30:24.216Z,13.60
2018-04-22T03:32:54.186Z,12.73
2018-04-22T03:35:22.550Z,13.40
2018-04-22T03:37:50.870Z,12.43
2018-04-22T03:40:19.187Z,15.50
2018-04-22T03:42:48.285Z,14.33
2018-04-22T03:45:16.636Z,16.40
2018-04-22T03:47:44.964Z,12.90
2018-04-22T03:50:14.056Z,15.53
2018-04-22T03:52:42.373Z,14.43
2018-04-22T03:55:10.698Z,12.77
2018-04-22T03:57:39.030Z,13.97
2018-04-22T04:00:07.376Z,16.70
2018-04-22T04:02:36.468Z,14.43
2018-04-22T04:05:05.566Z,15.17
2018-04-22T04:07:34.678Z,13.83
2018-04-22T04:10:03.830Z,14.80
2018-04-22T04:12:32.181Z,17.40
2018-04-22T04:15:00.518Z,18.57
2018-04-22T04:17:28.876Z,16.53
2018-04-22T04:20:15.086Z,14.83
2018-04-22T04:22:46.842Z,15.60
2018-04-22T04:28:33.719Z,15.17
2018-04-22T04:31:02.031Z,14.23
2018-04-22T04:33:30.415Z,17.60
2018-04-22T04:35:59.581Z,13.77
2018-04-22T04:38:27.902Z,18.27
2018-04-22T04:40:56.217Z,16.73
2018-04-22T04:43:25.329Z,14.27
2018-04-22T04:45:54.398Z,14.90
2018-04-22T04:48:22.724Z,20.60
2018-04-22T04:50:51.048Z,16.60
2018-04-22T04:53:19.367Z,15.47
2018-04-22T04:55:48.489Z,15.07
2018-04-22T04:58:16.807Z,15.60
2018-04-22T05:00:45.127Z,18.70
2018-04-22T05:03:14.203Z,13.47
2018-04-22T05:05:43.302Z,15.30
2018-04-22T05:08:11.644Z,16.30
2018-04-22T05:10:39.975Z,16.87
2018-04-22T05:13:09.146Z,12.80
2018-04-22T05:15:38.321Z,15.70
2018-04-22T05:18:06.646Z,13.73
2018-04-22T05:20:34.977Z,13.43
2018-04-22T05:23:03.305Z,16.30
2018-04-22T05:25:31.656Z,13.73
2018-04-22T05:27:59.982Z,15.13
2018-04-22T05:30:29.096Z,14.77
2018-04-22T05:32:58.194Z,14.60
2018-04-22T05:35:27.296Z,12.23
2018-04-22T05:37:55.624Z,16.67
2018-04-22T05:40:24.366Z,15.20
2018-04-22T05:42:53.476Z,16.47
2018-04-22T05:45:21.796Z,14.50
2018-04-22T05:47:50.301Z,13.77
2018-04-22T05:50:18.623Z,15.77
2018-04-22T05:52:46.965Z,12.53
2018-04-22T05:55:15.322Z,13.27
2018-04-22T05:57:43.647Z,13.77
2018-04-22T06:00:12.764Z,12.73
2018-04-22T06:02:41.862Z,11.93
2018-04-22T06:05:10.951Z,13.23
2018-04-22T06:07:40.091Z,12.67
2018-04-22T06:10:08.426Z,12.83
2018-04-22T06:12:37.523Z,13.30
2018-04-22T06:15:05.852Z,12.53
2018-04-22T06:17:34.163Z,14.50
2018-04-22T06:20:02.501Z,13.23
2018-04-22T06:22:30.877Z,13.00
2018-04-22T06:24:59.204Z,13.57
2018-04-22T06:27:28.104Z,14.30
2018-04-22T06:29:56.449Z,12.70
2018-04-22T06:32:24.795Z,14.23
2018-04-22T06:34:54.367Z,14.37
2018-04-22T06:37:22.711Z,14.13
2018-04-22T06:39:51.788Z,15.33
2018-04-22T06:42:20.957Z,13.63
2018-04-22T06:44:49.319Z,13.90
2018-04-22T06:47:17.665Z,15.20
2018-04-22T06:49:46.049Z,14.93
2018-04-22T06:52:15.217Z,14.97
2018-04-22T06:54:43.563Z,14.37
2018-04-22T06:57:11.977Z,16.43
2018-04-22T06:59:40.308Z,14.50
2018-04-22T07:02:08.647Z,14.50
2018-04-22T07:04:36.988Z,15.50
2018-04-22T07:07:05.825Z,15.70
2018-04-22T07:09:34.179Z,15.60
2018-04-22T07:12:02.528Z,14.73
2018-04-22T07:14:30.863Z,13.43
2018-04-22T07:16:59.212Z,14.00
2018-04-22T07:19:27.542Z,15.20
2018-04-22T07:21:56.879Z,15.27
2018-04-22T07:24:25.203Z,15.60
2018-04-22T07:26:53.548Z,16.20
2018-04-22T07:29:22.116Z,15.60
2018-04-22T07:31:50.473Z,16.90
2018-04-22T07:34:18.810Z,17.37
2018-04-22T07:36:47.142Z,17.70
2018-04-22T07:39:15.474Z,17.43
2018-04-22T07:41:43.841Z,17.63
2018-04-22T07:44:12.199Z,17.90
2018-04-22T07:46:41.329Z,18.80
2018-04-22T07:49:09.648Z,17.30
2018-04-22T07:51:37.965Z,17.83
2018-04-22T07:54:07.088Z,16.23
2018-04-22T07:56:35.647Z,18.37
2018-04-22T07:59:03.998Z,18.93
2018-04-22T08:01:32.333Z,17.80
2018-04-22T08:04:00.839Z,19.60
2018-04-22T08:06:29.159Z,19.27
2018-04-22T08:08:57.532Z,20.47
2018-04-22T08:11:25.926Z,19.33
2018-04-22T08:13:54.457Z,21.83
2018-04-22T08:16:22.843Z,21.20
2018-04-22T08:18:51.861Z,23.43
2018-04-22T08:21:20.229Z,25.53
2018-04-22T08:23:48.558Z,23.13
2018-04-22T08:26:16.894Z,24.80
2018-04-22T08:28:45.239Z,24.07
2018-04-22T08:31:14.336Z,24.93
2018-04-22T08:33:43.421Z,26.10
2018-04-22T08:36:12.384Z,28.40
2018-04-22T08:38:40.809Z,30.57
2018-04-22T08:41:09.925Z,31.63
2018-04-22T08:43:39.106Z,31.27
2018-04-22T08:46:07.442Z,31.60
2018-04-22T08:48:35.807Z,32.27
2018-04-22T08:51:04.124Z,32.50
2018-04-22T08:53:32.477Z,31.83
2018-04-22T08:56:00.867Z,31.27
2018-04-22T08:58:29.189Z,32.63
2018-04-22T09:00:57.523Z,32.10
2018-04-22T09:03:25.845Z,34.03
2018-04-22T09:05:54.175Z,34.20
2018-04-22T09:08:22.492Z,33.00
2018-04-22T09:10:51.710Z,31.80
2018-04-22T09:13:20.044Z,37.40
2018-04-22T09:15:48.364Z,34.43
2018-04-22T09:18:16.725Z,34.00
2018-04-22T09:20:45.037Z,35.13
2018-04-22T09:23:13.341Z,33.27
2018-04-22T09:25:42.433Z,38.77
2018-04-22T09:28:10.751Z,38.47
2018-04-22T09:30:39.140Z,37.97
2018-04-22T09:33:07.486Z,37.13
2018-04-22T09:35:36.577Z,38.00
2018-04-22T09:39:50.310Z,38.30
2018-04-22T09:42:18.700Z,36.70
2018-04-22T09:44:47.021Z,37.63
2018-04-22T09:47:16.274Z,38.27
2018-04-22T09:49:44.661Z,37.20
2018-04-22T09:52:12.972Z,39.67
2018-04-22T09:54:41.298Z,37.43
2018-04-22T09:57:10.608Z,39.00
2018-04-22T09:59:38.922Z,34.17
2018-04-22T10:02:12.985Z,38.50
2018-04-22T10:04:42.074Z,35.53
2018-04-22T10:07:10.407Z,36.93
2018-04-22T10:09:38.766Z,35.83
2018-04-22T10:12:07.913Z,36.77
2018-04-22T10:14:36.543Z,39.70
2018-04-22T10:17:05.922Z,39.40
2018-04-22T10:19:34.242Z,40.40
2018-04-22T10:22:02.602Z,38.50
2018-04-22T10:24:30.926Z,39.40
2018-04-22T10:26:59.516Z,39.00
2018-04-22T10:29:28.923Z,39.73
2018-04-22T10:31:57.964Z,41.50
2018-04-22T10:34:26.300Z,42.30
2018-04-22T10:36:54.622Z,41.43
2018-04-22T10:39:22.932Z,41.73
2018-04-22T10:41:52.000Z,42.50
2018-04-22T10:44:20.317Z,43.83
2018-04-22T10:46:48.629Z,44.73
2018-04-22T10:49:16.944Z,42.47
2018-04-22T10:51:45.270Z,40.70
2018-04-22T10:54:13.846Z,43.73
2018-04-22T10:56:42.994Z,43.43
2018-04-22T10:59:11.328Z,41.50
2018-04-22T11:04:01.803Z,43.67
2018-04-22T11:12:09.814Z,45.87
2018-04-22T11:14:38.109Z,48.60
2018-04-22T11:17:06.442Z,45.73
2018-04-22T11:19:35.736Z,42.90
2018-04-22T11:22:07.044Z,41.00
2018-04-22T11:24:36.494Z,40.73
2018-04-22T11:27:09.604Z,40.20
2018-04-22T11:29:41.174Z,38.93
2018-04-22T11:32:10.432Z,43.83
2018-04-22T11:34:38.815Z,39.87
2018-04-22T11:37:07.863Z,35.83
2018-04-22T11:39:36.215Z,31.80
2018-04-22T11:42:05.352Z,33.10
2018-04-22T11:44:33.679Z,29.97
2018-04-22T11:47:02.031Z,29.40
2018-04-22T11:49:30.336Z,34.60
2018-04-22T11:51:58.656Z,35.03
2018-04-22T11:54:27.512Z,34.33
2018-04-22T11:56:55.818Z,37.00
2018-04-22T11:59:28.238Z,38.47
2018-04-22T12:01:57.572Z,45.10
2018-04-22T12:04:28.101Z,43.50
2018-04-22T12:06:59.850Z,45.13
2018-04-22T12:09:28.556Z,43.17
2018-04-22T12:11:57.704Z,40.83
2018-04-22T12:14:26.170Z,43.80
2018-04-22T12:16:55.374Z,40.42
2018-04-22T12:19:25.324Z,44.85
2018-04-22T12:21:53.804Z,46.13
2018-04-22T12:24:22.124Z,43.95
2018-04-22T12:26:50.441Z,43.78
2018-04-22T12:29:19.538Z,43.10
2018-04-22T12:31:48.641Z,45.42
2018-04-22T12:34:16.928Z,43.50
2018-04-22T12:36:45.227Z,39.92
2018-04-22T12:39:13.548Z,41.33
2018-04-22T12:41:41.840Z,43.80
2018-04-22T12:44:10.177Z,41.88
2018-04-22T12:46:38.486Z,42.35
2018-04-22T12:49:06.791Z,44.67
2018-04-22T12:51:35.102Z,44.60
2018-04-22T12:54:03.421Z,41.65
2018-04-22T12:56:33.092Z,43.78
2018-04-22T12:59:01.406Z,50.65
2018-04-22T13:01:29.775Z,47.35
2018-04-22T13:03:58.106Z,48.90
2018-04-22T13:06:26.420Z,45.22
2018-04-22T13:08:54.738Z,43.67
2018-04-22T13:11:23.053Z,46.58
2018-04-22T13:13:51.350Z,42.00
2018-04-22T13:16:20.434Z,42.22
2018-04-22T13:18:49.532Z,43.85
2018-04-22T13:21:17.836Z,38.78
2018-04-22T13:23:46.923Z,34.92
2018-04-22T13:26:15.235Z,32.08
2018-04-22T13:28:43.567Z,30.25
2018-04-22T13:31:11.876Z,28.12
2018-04-22T13:33:40.957Z,28.20
2018-04-22T13:36:09.258Z,29.83
2018-04-22T13:38:38.338Z,32.13
2018-04-22T13:41:06.659Z,32.67
2018-04-22T13:43:34.964Z,34.97
2018-04-22T13:46:03.281Z,35.72
2018-04-22T13:48:32.352Z,33.80
2018-04-22T13:51:00.678Z,39.80
2018-04-22T13:53:29.762Z,38.92
2018-04-22T13:55:58.082Z,36.63
2018-04-22T13:58:26.446Z,31.30
2018-04-22T14:00:55.516Z,29.35
2018-04-22T14:03:23.823Z,28.40
2018-04-22T14:05:52.904Z,24.73
2018-04-22T14:08:21.227Z,21.70
2018-04-22T14:10:49.549Z,20.02
2018-04-22T14:13:17.885Z,23.20
2018-04-22T14:15:46.255Z,31.40
2018-04-22T14:18:15.331Z,43.33
2018-04-22T14:20:43.673Z,40.60
2018-04-22T14:23:11.987Z,42.90
2018-04-22T14:25:40.288Z,42.90
2018-04-22T14:28:09.375Z,37.88
2018-04-22T14:30:37.709Z,31.87
2018-04-22T14:33:06.036Z,32.30
2018-04-22T14:35:34.376Z,32.80
2018-04-22T14:38:02.725Z,28.70
2018-04-22T14:40:31.011Z,33.50
2018-04-22T14:43:00.226Z,35.88
2018-04-22T14:45:49.003Z,36.03
2018-04-22T14:48:18.123Z,33.13
2018-04-22T14:50:46.528Z,39.47
2018-04-22T14:53:14.795Z,47.83
2018-04-22T14:55:43.119Z,49.83
2018-04-22T14:58:11.440Z,51.17
2018-04-22T15:00:39.746Z,53.00
2018-04-22T15:03:08.068Z,53.50
2018-04-22T15:05:36.365Z,53.73
2018-04-22T15:08:04.825Z,58.20
2018-04-22T15:10:33.116Z,56.37
2018-04-22T15:13:01.420Z,57.50
2018-04-22T15:15:29.738Z,56.33
2018-04-22T15:17:58.065Z,46.10
2018-04-22T15:20:26.404Z,38.43
2018-04-22T15:22:55.489Z,35.07
2018-04-22T15:25:23.813Z,32.83
2018-04-22T15:27:52.108Z,29.47
2018-04-22T15:30:21.211Z,29.30
2018-04-22T15:32:49.515Z,26.27
2018-04-22T15:35:17.903Z,26.97
2018-04-22T15:37:46.247Z,27.10
2018-04-22T15:40:14.571Z,29.37
2018-04-22T15:42:42.899Z,26.50
2018-04-22T15:45:11.972Z,25.80
2018-04-22T15:47:40.284Z,25.00
2018-04-22T15:50:08.626Z,28.10
2018-04-22T15:52:36.946Z,24.13
2018-04-22T15:55:06.023Z,26.60
2018-04-22T15:57:35.096Z,26.93
2018-04-22T16:00:03.408Z,24.23
2018-04-22T16:02:32.506Z,27.13
2018-04-22T16:05:01.602Z,27.60
2018-04-22T16:07:30.686Z,28.60
2018-04-22T16:09:59.008Z,28.70
2018-04-22T16:12:27.309Z,28.47
2018-04-22T16:14:55.699Z,27.37
2018-04-22T16:17:24.845Z,26.30
2018-04-22T16:19:53.168Z,26.20
2018-04-22T16:22:21.509Z,25.83
2018-04-22T16:24:50.589Z,25.37
2018-04-22T16:27:18.894Z,24.77
2018-04-22T16:29:47.965Z,23.93
2018-04-22T16:32:16.283Z,24.20
2018-04-22T16:34:45.373Z,23.47
2018-04-22T16:37:14.455Z,22.20
2018-04-22T16:39:42.763Z,21.57
2018-04-22T16:42:11.852Z,21.80
2018-04-22T16:44:40.917Z,19.73
2018-04-22T16:47:09.223Z,18.70
2018-04-22T16:49:37.539Z,16.80
2018-04-22T16:52:05.911Z,15.67
2018-04-22T16:54:34.225Z,14.27
2018-04-22T16:57:02.542Z,12.60
2018-04-22T16:59:30.845Z,15.13
2018-04-22T17:02:00.009Z,11.97
2018-04-22T17:04:28.307Z,12.40
2018-04-22T17:06:56.610Z,12.23
2018-04-22T17:09:25.718Z,11.47
2018-04-22T17:11:54.077Z,12.97
2018-04-22T17:14:22.412Z,11.93
2018-04-22T17:16:50.742Z,10.87
2018-04-22T17:19:19.593Z,11.80
2018-04-22T17:21:49.646Z,14.37
2018-04-22T17:24:18.588Z,11.70
2018-04-22T17:26:48.313Z,11.30
2018-04-22T17:29:17.319Z,12.93
2018-04-22T17:31:46.709Z,14.10
2018-04-22T17:34:15.230Z,16.37
2018-04-22T17:36:45.093Z,9.70
2018-04-22T17:39:21.937Z,18.03
2018-04-22T17:41:53.391Z,14.77
2018-04-22T17:44:25.972Z,11.70
2018-04-22T17:46:55.751Z,15.17
2018-04-22T17:49:25.261Z,18.00
2018-04-22T17:51:54.250Z,14.33
2018-04-22T17:54:23.538Z,14.27
2018-04-22T17:56:52.205Z,17.90
2018-04-22T17:59:21.594Z,14.40
2018-04-22T18:01:54.800Z,18.73
2018-04-22T18:04:28.979Z,15.57
2018-04-22T18:07:01.516Z,20.40
2018-04-22T18:09:31.237Z,21.60
2018-04-22T18:12:05.057Z,13.50
2018-04-22T18:14:35.176Z,17.57
2018-04-22T18:17:05.730Z,9.93
2018-04-22T18:19:34.537Z,20.30
2018-04-22T18:22:05.645Z,22.50
2018-04-22T18:24:35.569Z,15.60
2018-04-22T18:27:04.525Z,20.23
2018-04-22T18:29:36.214Z,18.40
2018-04-22T18:32:04.682Z,17.87
2018-04-22T18:34:34.350Z,12.90
2018-04-22T18:37:02.676Z,17.17
2018-04-22T18:39:31.761Z,18.00
2018-04-22T18:42:00.829Z,15.57
2018-04-22T18:44:29.212Z,21.17
2018-04-22T18:46:57.521Z,18.70
2018-04-22T18:49:26.579Z,16.33
2018-04-22T18:51:54.890Z,16.43
2018-04-22T18:54:23.241Z,17.67
2018-04-22T18:56:51.543Z,15.13
2018-04-22T18:59:19.870Z,15.00
2018-04-22T19:01:48.166Z,20.73
2018-04-22T19:04:16.498Z,12.60
2018-04-22T19:06:44.808Z,20.20
2018-04-22T19:09:13.118Z,18.33
2018-04-22T19:11:41.429Z,15.30
2018-04-22T19:14:10.010Z,22.07
2018-04-22T19:16:38.312Z,15.03
2018-04-22T19:19:06.687Z,15.67
2018-04-22T19:21:35.021Z,16.23
2018-04-22T19:24:03.330Z,16.03
2018-04-22T19:26:31.644Z,18.30
2018-04-22T19:28:59.943Z,17.33
2018-04-22T19:31:29.059Z,26.60
2018-04-22T19:33:57.466Z,28.20
2018-04-22T19:36:25.770Z,23.30
2018-04-22T19:38:54.094Z,19.77
2018-04-22T19:41:22.420Z,16.27
2018-04-22T19:43:50.734Z,93.93
2018-04-22T19:46:19.841Z,30.60
2018-04-22T19:48:48.999Z,15.33
2018-04-22T19:51:18.072Z,18.13
2018-04-22T19:53:46.387Z,16.33
2018-04-22T19:56:14.729Z,18.90
2018-04-22T19:58:43.041Z,20.90
2018-04-22T20:01:11.533Z,24.03
2018-04-22T20:03:39.833Z,15.53
2018-04-22T20:06:08.169Z,21.20
2018-04-22T20:08:36.545Z,17.37
2018-04-22T20:11:04.870Z,24.00
2018-04-22T20:13:33.187Z,20.43
2018-04-22T20:16:02.258Z,19.43
2018-04-22T20:18:30.558Z,17.23
2018-04-22T20:20:59.634Z,16.23
2018-04-22T20:23:27.949Z,20.23
2018-04-22T20:25:56.275Z,22.50
2018-04-22T20:28:24.600Z,19.10
2018-04-22T20:30:53.688Z,21.57
2018-04-22T20:33:22.021Z,17.67
2018-04-22T20:35:50.322Z,13.63
2018-04-22T20:38:18.625Z,19.63
2018-04-22T20:40:46.916Z,15.93
2018-04-22T20:43:16.085Z,21.10
2018-04-22T20:45:44.472Z,15.37
2018-04-22T20:48:12.815Z,15.63
2018-04-22T20:50:41.970Z,11.40
2018-04-22T20:53:10.296Z,17.07
2018-04-22T20:55:38.608Z,16.87
2018-04-22T20:58:06.908Z,16.27
2018-04-22T21:00:35.213Z,14.33
2018-04-22T21:03:04.426Z,15.10
2018-04-22T21:05:32.756Z,12.77
2018-04-22T21:08:01.068Z,15.90
2018-04-22T21:10:29.371Z,13.90
2018-04-22T21:12:57.693Z,19.23
2018-04-22T21:15:25.994Z,15.67
2018-04-22T21:17:54.297Z,15.67
2018-04-22T21:20:23.406Z,12.20
2018-04-22T21:22:52.643Z,17.00
2018-04-22T21:25:20.952Z,17.23
2018-04-22T21:27:49.309Z,17.67
2018-04-22T21:30:17.633Z,13.57
2018-04-22T21:32:45.957Z,19.70
2018-04-22T21:35:14.253Z,18.57
2018-04-22T21:37:42.573Z,16.00
2018-04-22T21:40:10.908Z,11.90
2018-04-22T21:42:39.223Z,14.17
2018-04-22T21:45:07.531Z,11.97
2018-04-22T21:47:36.591Z,14.77
2018-04-22T21:50:04.924Z,10.73
2018-04-22T21:52:33.995Z,8.60
2018-04-22T21:55:02.321Z,16.07
2018-04-22T21:57:30.644Z,11.77
2018-04-22T21:59:58.979Z,12.53
2018-04-22T22:02:27.310Z,13.27
2018-04-22T22:04:56.854Z,15.90
2018-04-22T22:07:25.938Z,16.10
2018-04-22T22:09:55.023Z,17.23
2018-04-22T22:12:23.414Z,16.10
2018-04-22T22:14:51.745Z,20.97
2018-04-22T22:17:20.046Z,24.73
2018-04-22T22:19:48.375Z,23.30
2018-04-22T22:22:17.443Z,18.10
2018-04-22T22:24:45.749Z,21.87
2018-04-22T22:27:14.859Z,20.47
2018-04-22T22:29:43.946Z,26.67
2018-04-22T22:32:13.017Z,25.23
2018-04-22T22:34:41.336Z,24.80
2018-04-22T22:37:10.405Z,20.93
2018-04-22T22:39:38.721Z,25.27
2018-04-22T22:42:07.040Z,29.57
2018-04-22T22:44:35.350Z,25.20
2018-04-22T22:47:03.841Z,26.37
2018-04-22T22:49:32.183Z,29.17
2018-04-22T22:52:00.484Z,29.33
2018-04-22T22:54:28.794Z,29.33
2018-04-22T22:56:57.099Z,33.57
2018-04-22T22:59:25.398Z,27.80
2018-04-22T23:01:53.692Z,38.43
2018-04-22T23:04:21.998Z,35.30
2018-04-22T23:06:50.371Z,27.87
2018-04-22T23:09:18.682Z,39.57
2018-04-22T23:11:47.761Z,38.17
2018-04-22T23:14:16.071Z,34.13
2018-04-22T23:16:45.135Z,35.80
2018-04-22T23:19:13.442Z,35.27
2018-04-22T23:21:42.522Z,37.00
2018-04-22T23:24:10.838Z,35.13
2018-04-22T23:26:39.151Z,37.00
2018-04-22T23:29:07.460Z,41.20
2018-04-22T23:31:35.773Z,30.70
2018-04-22T23:34:04.837Z,37.03
2018-04-22T23:36:33.138Z,39.93
2018-04-22T23:39:01.454Z,42.70
2018-04-22T23:41:29.778Z,35.43
2018-04-22T23:43:58.096Z,36.93
2018-04-22T23:46:27.170Z,49.73
2018-04-22T23:48:55.480Z,37.10
2018-04-22T23:51:24.561Z,37.13
2018-04-22T23:53:53.636Z,41.57
2018-04-22T23:56:21.945Z,41.07
2018-04-22T23:58:51.008Z,34.97
